Time;durP1;ratioP1;P1;durP2;ratioP2;P2;SDS_P1;SDS_P2;PMS_P1;PMS_P2;Temp;Humidity;BMP_temperature;BMP_pressure;BME280_temperature;BME280_humidity;BME280_pressure;Samples;Min_cycle;Max_cycle;Signal;HPM_P1;HPM_P2
2021/07/18 00:00:27;;;;;;;14.55;13.13;;;;;;;;;;4977416;28;20113;-71
2021/07/18 00:02:53;;;;;;;16.58;13.85;;;;;;;;;;4977183;28;20026;-71
2021/07/18 00:05:19;;;;;;;17.17;14.98;;;;;;;;;;4977046;28;20027;-71
2021/07/18 00:07:45;;;;;;;17.05;15.30;;;;;;;;;;4976724;28;20022;-71
2021/07/18 00:10:12;;;;;;;14.65;13.35;;;;;;;;;;4977888;28;20030;-70
2021/07/18 00:12:38;;;;;;;15.40;13.90;;;;;;;;;;4977008;28;20029;-71
2021/07/18 00:15:05;;;;;;;15.00;13.52;;;;;;;;;;4977409;28;20054;-71
2021/07/18 00:17:37;;;;;;;15.07;13.68;;;;;;;;;;4977104;28;20097;-72
2021/07/18 00:20:03;;;;;;;15.13;13.73;;;;;;;;;;4976858;28;20123;-71
2021/07/18 00:22:29;;;;;;;12.98;11.85;;;;;;;;;;4976868;28;20070;-71
2021/07/18 00:24:55;;;;;;;13.90;12.68;;;;;;;;;;4977256;28;20023;-71
2021/07/18 00:27:21;;;;;;;13.65;12.35;;;;;;;;;;4976895;28;20110;-71
2021/07/18 00:29:47;;;;;;;13.68;12.52;;;;;;;;;;4976403;28;20034;-71
2021/07/18 00:32:13;;;;;;;14.57;13.32;;;;;;;;;;4976871;28;20035;-71
2021/07/18 00:34:39;;;;;;;13.57;12.32;;;;;;;;;;4976270;28;20468;-71
2021/07/18 00:37:05;;;;;;;16.83;15.25;;;;;;;;;;4976609;28;20562;-71
2021/07/18 00:39:31;;;;;;;15.15;13.80;;;;;;;;;;4976627;28;20089;-71
2021/07/18 00:41:57;;;;;;;15.98;14.45;;;;;;;;;;4976513;28;20086;-71
2021/07/18 00:44:23;;;;;;;15.30;13.90;;;;;;;;;;4976203;28;20078;-71
2021/07/18 00:46:49;;;;;;;13.82;12.52;;;;;;;;;;4976253;28;20031;-72
2021/07/18 00:49:15;;;;;;;13.07;11.00;;;;;;;;;;4976182;28;20033;-71
2021/07/18 00:51:41;;;;;;;15.40;13.77;;;;;;;;;;4976155;28;20034;-72
2021/07/18 00:54:08;;;;;;;13.48;12.27;;;;;;;;;;4976176;28;20057;-72
2021/07/18 00:56:34;;;;;;;12.82;11.73;;;;;;;;;;4976395;28;20450;-72
2021/07/18 00:59:00;;;;;;;12.45;11.45;;;;;;;;;;4976003;28;20034;-71
2021/07/18 01:01:26;;;;;;;15.38;12.48;;;;;;;;;;4976016;28;20041;-72
2021/07/18 01:03:52;;;;;;;13.43;12.05;;;;;;;;;;4975976;28;20034;-72
2021/07/18 01:06:18;;;;;;;13.30;12.10;;;;;;;;;;4975962;28;20089;-71
2021/07/18 01:08:44;;;;;;;14.73;13.23;;;;;;;;;;4976023;28;20030;-71
2021/07/18 01:11:10;;;;;;;12.60;11.52;;;;;;;;;;4975956;28;20064;-71
2021/07/18 01:13:36;;;;;;;12.52;11.48;;;;;;;;;;4975427;28;20477;-71
2021/07/18 01:16:03;;;;;;;12.82;11.63;;;;;;;;;;4975730;28;20452;-71
2021/07/18 01:18:29;;;;;;;12.23;11.23;;;;;;;;;;4976148;28;20038;-71
2021/07/18 01:20:55;;;;;;;13.60;12.43;;;;;;;;;;4975531;28;20039;-71
2021/07/18 01:23:21;;;;;;;12.73;11.52;;;;;;;;;;4975887;28;20031;-71
2021/07/18 01:25:52;;;;;;;12.52;11.32;;;;;;;;;;4975492;28;20030;-71
2021/07/18 01:28:18;;;;;;;;;;;;;;;;;;4976223;28;20380;-71
2021/07/18 01:30:44;;;;;;;11.35;10.35;;;;;;;;;;4975561;28;20009;-71
2021/07/18 01:33:10;;;;;;;12.55;11.45;;;;;;;;;;4975814;28;20031;-71
2021/07/18 01:35:36;;;;;;;14.23;11.93;;;;;;;;;;4975275;28;20085;-72
2021/07/18 01:38:04;;;;;;;13.25;12.00;;;;;;;;;;4975455;28;20038;-71
2021/07/18 01:40:30;;;;;;;15.18;13.60;;;;;;;;;;4975679;28;20023;-71
2021/07/18 01:42:56;;;;;;;13.48;12.35;;;;;;;;;;4975397;28;20039;-71
2021/07/18 01:45:23;;;;;;;16.27;14.05;;;;;;;;;;4974595;28;20031;-71
2021/07/18 01:47:49;;;;;;;13.57;12.18;;;;;;;;;;4974866;28;20031;-71
2021/07/18 01:50:15;;;;;;;13.70;12.45;;;;;;;;;;4974730;28;20019;-71
2021/07/18 01:52:41;;;;;;;13.68;12.35;;;;;;;;;;4975662;28;20523;-71
2021/07/18 01:55:08;;;;;;;14.50;13.20;;;;;;;;;;4974780;28;20054;-71
2021/07/18 01:57:34;;;;;;;12.77;11.70;;;;;;;;;;4974684;28;20515;-71
2021/07/18 02:00:00;;;;;;;14.90;13.48;;;;;;;;;;4974956;28;20027;-71
2021/07/18 02:02:26;;;;;;;13.88;12.50;;;;;;;;;;4975009;28;20030;-70
2021/07/18 02:04:52;;;;;;;13.45;11.90;;;;;;;;;;4974957;28;20022;-71
2021/07/18 02:07:18;;;;;;;15.13;13.70;;;;;;;;;;4975300;28;20381;-71
2021/07/18 02:09:44;;;;;;;16.23;14.77;;;;;;;;;;4974974;28;20109;-71
2021/07/18 02:12:10;;;;;;;13.55;11.57;;;;;;;;;;4974839;28;20030;-71
2021/07/18 02:14:37;;;;;;;14.52;12.90;;;;;;;;;;4975187;28;20031;-71
2021/07/18 02:17:04;;;;;;;14.18;11.38;;;;;;;;;;4974824;28;20078;-71
2021/07/18 02:19:30;;;;;;;15.38;13.77;;;;;;;;;;4974621;28;20023;-71
2021/07/18 02:21:57;;;;;;;12.20;11.05;;;;;;;;;;4975269;28;20362;-71
2021/07/18 02:24:23;;;;;;;13.55;12.02;;;;;;;;;;4975058;28;20027;-71
2021/07/18 02:26:49;;;;;;;16.23;12.27;;;;;;;;;;4975423;28;20031;-71
2021/07/18 02:29:15;;;;;;;14.50;13.18;;;;;;;;;;4975032;28;20030;-71
2021/07/18 02:31:41;;;;;;;15.30;13.50;;;;;;;;;;4974719;28;20023;-72
2021/07/18 02:34:07;;;;;;;14.73;12.55;;;;;;;;;;4974296;28;20061;-71
2021/07/18 02:36:33;;;;;;;14.45;13.20;;;;;;;;;;4974813;28;20484;-71
2021/07/18 02:38:59;;;;;;;15.05;13.68;;;;;;;;;;4974732;28;20030;-71
2021/07/18 02:41:26;;;;;;;15.13;13.70;;;;;;;;;;4974488;28;20085;-71
2021/07/18 02:43:52;;;;;;;15.23;13.80;;;;;;;;;;4974548;28;20118;-71
2021/07/18 02:46:18;;;;;;;18.23;11.85;;;;;;;;;;4974839;28;20019;-70
2021/07/18 02:48:44;;;;;;;16.48;14.82;;;;;;;;;;4974212;28;20027;-71
2021/07/18 02:51:10;;;;;;;20.42;17.50;;;;;;;;;;4975047;28;20054;-71
2021/07/18 02:53:36;;;;;;;20.80;18.90;;;;;;;;;;4974366;28;20055;-71
2021/07/18 02:56:02;;;;;;;19.08;17.38;;;;;;;;;;4975272;28;20038;-72
2021/07/18 02:58:28;;;;;;;15.43;13.65;;;;;;;;;;4978505;28;20023;-71
2021/07/18 03:00:54;;;;;;;17.25;15.65;;;;;;;;;;4978408;28;20433;-71
2021/07/18 03:03:20;;;;;;;14.70;13.32;;;;;;;;;;4977781;28;20029;-72
2021/07/18 03:05:47;;;;;;;17.83;15.90;;;;;;;;;;4977840;28;20054;-72
2021/07/18 03:08:13;;;;;;;21.48;15.50;;;;;;;;;;4977976;28;20090;-71
2021/07/18 03:10:39;;;;;;;17.52;14.68;;;;;;;;;;4978158;28;20376;-72
2021/07/18 03:13:05;;;;;;;16.45;14.70;;;;;;;;;;4978060;28;20081;-72
2021/07/18 03:15:31;;;;;;;24.88;17.85;;;;;;;;;;4978001;28;20033;-72
2021/07/18 03:17:57;;;;;;;17.63;15.82;;;;;;;;;;4977878;28;20023;-72
2021/07/18 03:20:23;;;;;;;16.98;13.63;;;;;;;;;;4978060;28;20473;-72
2021/07/18 03:22:49;;;;;;;17.38;15.60;;;;;;;;;;4978163;28;20473;-71
2021/07/18 03:25:16;;;;;;;22.55;19.40;;;;;;;;;;4977911;28;20027;-71
2021/07/18 03:27:42;;;;;;;19.27;17.50;;;;;;;;;;4977528;28;20037;-72
2021/07/18 03:30:09;;;;;;;23.58;21.10;;;;;;;;;;4978112;28;20023;-71
2021/07/18 03:32:35;;;;;;;20.27;18.35;;;;;;;;;;4977434;28;20031;-71
2021/07/18 03:35:01;;;;;;;20.77;14.82;;;;;;;;;;4977969;28;20037;-71
2021/07/18 03:37:27;;;;;;;20.33;16.83;;;;;;;;;;4977452;28;20382;-71
2021/07/18 03:39:53;;;;;;;20.02;17.67;;;;;;;;;;4977327;28;20503;-71
2021/07/18 03:42:19;;;;;;;20.42;15.88;;;;;;;;;;4977524;28;20519;-71
2021/07/18 03:44:45;;;;;;;23.77;18.33;;;;;;;;;;4977779;28;20033;-71
2021/07/18 03:47:11;;;;;;;22.33;19.85;;;;;;;;;;4977180;28;20027;-71
2021/07/18 03:49:38;;;;;;;28.58;21.17;;;;;;;;;;4977513;28;20118;-71
2021/07/18 03:52:04;;;;;;;20.75;18.63;;;;;;;;;;4977618;28;20536;-72
2021/07/18 03:54:30;;;;;;;22.70;20.15;;;;;;;;;;4977868;28;20062;-73
2021/07/18 03:56:57;;;;;;;25.45;22.90;;;;;;;;;;4977985;28;20368;-73
2021/07/18 03:59:23;;;;;;;26.27;18.52;;;;;;;;;;4977737;28;20118;-73
2021/07/18 04:01:49;;;;;;;20.20;16.05;;;;;;;;;;4977197;28;20034;-73
2021/07/18 04:04:15;;;;;;;21.35;18.52;;;;;;;;;;4978143;28;20033;-74
2021/07/18 04:06:41;;;;;;;23.73;21.25;;;;;;;;;;4977968;28;20034;-74
2021/07/18 04:09:07;;;;;;;24.38;19.35;;;;;;;;;;4976947;28;20030;-74
2021/07/18 04:11:33;;;;;;;18.67;16.75;;;;;;;;;;4977539;28;20117;-75
2021/07/18 04:13:59;;;;;;;23.58;19.58;;;;;;;;;;4977374;28;20027;-75
2021/07/18 04:16:25;;;;;;;19.27;17.20;;;;;;;;;;4977397;28;20023;-73
2021/07/18 04:18:51;;;;;;;32.05;23.60;;;;;;;;;;4977572;28;20033;-73
2021/07/18 04:21:19;;;;;;;20.80;18.38;;;;;;;;;;4977564;28;20496;-73
2021/07/18 04:23:46;;;;;;;21.08;18.83;;;;;;;;;;4977195;28;20019;-73
2021/07/18 04:26:12;;;;;;;22.15;18.20;;;;;;;;;;4977648;28;20439;-74
2021/07/18 04:28:38;;;;;;;24.80;19.98;;;;;;;;;;4977069;28;20473;-74
2021/07/18 04:31:04;;;;;;;25.00;22.35;;;;;;;;;;4977519;28;20035;-74
2021/07/18 04:33:30;;;;;;;20.92;18.70;;;;;;;;;;4977310;28;20022;-73
2021/07/18 04:35:56;;;;;;;31.08;17.98;;;;;;;;;;4977700;28;20027;-73
2021/07/18 04:38:22;;;;;;;28.35;20.45;;;;;;;;;;4977122;28;20168;-73
2021/07/18 04:40:48;;;;;;;26.80;21.45;;;;;;;;;;4976971;28;20026;-73
2021/07/18 04:43:14;;;;;;;25.63;20.60;;;;;;;;;;4977359;28;20031;-73
2021/07/18 04:45:40;;;;;;;28.48;22.60;;;;;;;;;;4976615;28;20062;-74
2021/07/18 04:48:06;;;;;;;29.65;22.67;;;;;;;;;;4976883;28;20050;-74
2021/07/18 04:50:32;;;;;;;30.08;22.58;;;;;;;;;;4977461;28;20037;-74
2021/07/18 04:52:58;;;;;;;24.05;21.05;;;;;;;;;;4976689;28;20035;-74
2021/07/18 04:55:24;;;;;;;23.58;19.25;;;;;;;;;;4976817;28;20093;-74
2021/07/18 04:57:50;;;;;;;28.85;21.52;;;;;;;;;;4976580;28;20965;-73
2021/07/18 05:00:17;;;;;;;31.50;20.23;;;;;;;;;;4976674;28;20043;-74
2021/07/18 05:02:43;;;;;;;28.20;22.45;;;;;;;;;;4976705;28;20726;-73
2021/07/18 05:05:10;;;;;;;32.60;22.38;;;;;;;;;;4976846;28;20031;-74
2021/07/18 05:07:56;;;;;;;29.42;23.10;;;;;;;;;;4976569;28;20089;-73
2021/07/18 05:10:23;;;;;;;29.42;22.63;;;;;;;;;;5002157;28;20022;-74
2021/07/18 05:12:49;;;;;;;27.73;22.92;;;;;;;;;;4975909;28;20054;-74
2021/07/18 05:15:15;;;;;;;30.30;23.65;;;;;;;;;;4976301;28;20077;-74
2021/07/18 05:17:41;;;;;;;29.88;20.63;;;;;;;;;;4976087;28;20026;-74
2021/07/18 05:20:08;;;;;;;32.40;22.80;;;;;;;;;;4976059;28;20027;-74
2021/07/18 05:22:34;;;;;;;39.03;22.05;;;;;;;;;;4973928;28;20035;-75
2021/07/18 05:25:01;;;;;;;27.85;22.75;;;;;;;;;;4977972;28;20033;-73
2021/07/18 05:27:28;;;;;;;33.63;21.42;;;;;;;;;;4986831;28;20061;-73
2021/07/18 05:29:54;;;;;;;36.38;23.00;;;;;;;;;;4995384;28;20033;-73
2021/07/18 05:32:20;;;;;;;37.22;23.85;;;;;;;;;;4994448;28;20026;-75
2021/07/18 05:34:46;;;;;;;35.63;26.27;;;;;;;;;;4978464;28;20046;-75
2021/07/18 05:37:13;;;;;;;26.73;21.20;;;;;;;;;;4977733;28;20030;-74
2021/07/18 05:39:39;;;;;;;26.58;21.60;;;;;;;;;;4976723;28;20088;-77
2021/07/18 05:42:05;;;;;;;26.83;23.17;;;;;;;;;;4976906;28;20031;-76
2021/07/18 05:44:33;;;;;;;25.10;20.90;;;;;;;;;;4977174;28;20019;-76
2021/07/18 05:47:00;;;;;;;33.05;21.42;;;;;;;;;;4983338;28;20101;-75
2021/07/18 05:49:27;;;;;;;35.38;23.58;;;;;;;;;;4995526;28;20388;-73
2021/07/18 05:51:53;;;;;;;31.50;23.50;;;;;;;;;;4995731;28;20576;-74
2021/07/18 05:54:19;;;;;;;30.30;23.70;;;;;;;;;;4996173;28;20054;-74
2021/07/18 05:56:45;;;;;;;29.85;22.15;;;;;;;;;;4993792;28;20113;-73
2021/07/18 05:59:11;;;;;;;26.48;21.88;;;;;;;;;;4996241;28;20023;-74
2021/07/18 06:01:37;;;;;;;41.70;27.85;;;;;;;;;;4995777;28;20089;-75
2021/07/18 06:04:03;;;;;;;27.00;18.55;;;;;;;;;;4982948;28;20030;-73
2021/07/18 06:06:29;;;;;;;33.47;26.30;;;;;;;;;;4978209;28;20058;-72
2021/07/18 06:08:55;;;;;;;36.67;25.98;;;;;;;;;;4995522;28;20046;-71
2021/07/18 06:11:22;;;;;;;29.48;21.77;;;;;;;;;;4995206;28;20410;-74
2021/07/18 06:13:48;;;;;;;39.95;24.23;;;;;;;;;;4996025;28;20030;-71
2021/07/18 06:16:14;;;;;;;35.63;24.50;;;;;;;;;;4989159;28;20065;-72
2021/07/18 06:18:40;;;;;;;33.55;26.88;;;;;;;;;;4994414;28;20026;-71
2021/07/18 06:21:06;;;;;;;33.30;25.48;;;;;;;;;;4996450;28;20034;-68
2021/07/18 06:23:33;;;;;;;34.90;26.20;;;;;;;;;;4994609;28;20472;-70
2021/07/18 06:25:59;;;;;;;30.15;22.38;;;;;;;;;;4994564;28;20030;-73
2021/07/18 06:28:25;;;;;;;29.73;25.55;;;;;;;;;;4992279;28;20142;-69
2021/07/18 06:30:54;;;;;;;29.80;23.67;;;;;;;;;;4995089;28;20029;-70
2021/07/18 06:33:20;;;;;;;33.63;24.17;;;;;;;;;;4999471;28;20419;-71
2021/07/18 06:35:46;;;;;;;43.35;26.05;;;;;;;;;;4999245;28;20064;-72
2021/07/18 06:38:12;;;;;;;33.30;24.20;;;;;;;;;;4980514;28;20033;-72
2021/07/18 06:40:38;;;;;;;30.98;23.33;;;;;;;;;;4978563;28;20031;-71
2021/07/18 06:43:04;;;;;;;34.38;25.80;;;;;;;;;;4976727;28;20492;-72
2021/07/18 06:45:30;;;;;;;34.95;23.45;;;;;;;;;;4978021;28;20445;-71
2021/07/18 06:47:56;;;;;;;32.22;26.70;;;;;;;;;;4978415;28;20080;-74
2021/07/18 06:50:22;;;;;;;48.65;27.92;;;;;;;;;;4979135;28;20093;-71
2021/07/18 06:52:49;;;;;;;29.48;23.77;;;;;;;;;;4974184;28;20029;-73
2021/07/18 06:55:15;;;;;;;33.95;25.70;;;;;;;;;;4978352;28;20057;-75
2021/07/18 06:57:46;;;;;;;33.25;28.75;;;;;;;;;;4977238;28;20034;-76
2021/07/18 07:00:12;;;;;;;;;;;;;;;;;;4989539;28;20419;-74
2021/07/18 07:02:38;;;;;;;32.85;25.98;;;;;;;;;;4996909;28;19917;-74
2021/07/18 07:05:05;;;;;;;33.33;29.02;;;;;;;;;;4997426;28;20029;-72
2021/07/18 07:07:31;;;;;;;35.05;25.60;;;;;;;;;;4981857;28;20042;-72
2021/07/18 07:09:57;;;;;;;38.22;27.40;;;;;;;;;;4984771;28;20030;-73
2021/07/18 07:12:24;;;;;;;38.92;23.52;;;;;;;;;;4996529;28;20042;-73
2021/07/18 07:14:50;;;;;;;34.03;25.98;;;;;;;;;;4997461;28;20464;-73
2021/07/18 07:17:16;;;;;;;33.10;27.05;;;;;;;;;;4997047;28;20034;-72
2021/07/18 07:19:42;;;;;;;33.13;24.55;;;;;;;;;;4986550;28;20023;-74
2021/07/18 07:22:08;;;;;;;31.35;25.50;;;;;;;;;;4977014;28;20472;-73
2021/07/18 07:24:34;;;;;;;29.52;23.60;;;;;;;;;;4977318;28;20023;-72
2021/07/18 07:27:01;;;;;;;30.40;24.83;;;;;;;;;;4977508;28;20548;-72
2021/07/18 07:29:27;;;;;;;30.05;23.90;;;;;;;;;;4976080;28;20026;-73
2021/07/18 07:31:53;;;;;;;32.92;26.45;;;;;;;;;;4976823;28;20035;-72
2021/07/18 07:34:19;;;;;;;36.90;29.33;;;;;;;;;;4977439;28;20097;-72
2021/07/18 07:36:45;;;;;;;33.05;27.80;;;;;;;;;;4976976;28;20037;-71
2021/07/18 07:39:11;;;;;;;35.30;28.15;;;;;;;;;;4975489;28;20030;-72
2021/07/18 07:41:37;;;;;;;42.85;31.10;;;;;;;;;;4976276;28;20039;-72
2021/07/18 07:44:03;;;;;;;42.53;29.67;;;;;;;;;;4975622;28;20034;-72
2021/07/18 07:46:29;;;;;;;40.63;29.95;;;;;;;;;;4976879;28;20034;-72
2021/07/18 07:48:55;;;;;;;35.33;26.65;;;;;;;;;;4977100;28;20469;-71
2021/07/18 07:51:21;;;;;;;36.97;27.27;;;;;;;;;;4977072;28;20492;-71
2021/07/18 07:53:47;;;;;;;39.05;30.42;;;;;;;;;;4976578;28;20078;-71
2021/07/18 07:56:13;;;;;;;38.58;29.48;;;;;;;;;;4976613;28;20039;-71
2021/07/18 07:58:39;;;;;;;36.00;28.05;;;;;;;;;;4977205;28;20389;-70
2021/07/18 08:01:06;;;;;;;32.05;28.38;;;;;;;;;;4976820;28;20039;-71
2021/07/18 08:03:32;;;;;;;33.97;28.48;;;;;;;;;;4976380;28;20481;-72
2021/07/18 08:05:58;;;;;;;35.72;27.52;;;;;;;;;;4976770;28;20035;-72
2021/07/18 08:08:24;;;;;;;34.05;26.73;;;;;;;;;;4976013;28;20487;-72
2021/07/18 08:10:50;;;;;;;33.08;27.00;;;;;;;;;;4976250;28;20438;-71
2021/07/18 08:13:16;;;;;;;38.80;26.50;;;;;;;;;;4976349;28;20031;-72
2021/07/18 08:15:42;;;;;;;28.13;25.30;;;;;;;;;;4976090;28;20057;-72
2021/07/18 08:18:08;;;;;;;33.58;26.13;;;;;;;;;;4976534;28;20031;-73
2021/07/18 08:20:34;;;;;;;27.75;24.65;;;;;;;;;;4976351;28;20381;-72
2021/07/18 08:23:01;;;;;;;28.52;23.42;;;;;;;;;;4976403;28;20042;-72
2021/07/18 08:25:27;;;;;;;32.13;24.27;;;;;;;;;;4976764;28;20026;-73
2021/07/18 08:27:53;;;;;;;27.67;24.25;;;;;;;;;;4976405;28;20085;-71
2021/07/18 08:30:19;;;;;;;27.27;20.80;;;;;;;;;;4977031;28;20023;-71
2021/07/18 08:32:45;;;;;;;27.48;23.38;;;;;;;;;;4972595;28;20109;-73
2021/07/18 08:35:11;;;;;;;29.73;22.70;;;;;;;;;;4982447;28;20037;-72
2021/07/18 08:37:37;;;;;;;25.35;22.15;;;;;;;;;;4972598;28;20027;-71
2021/07/18 08:40:04;;;;;;;24.95;22.33;;;;;;;;;;4976007;28;20035;-72
2021/07/18 08:42:30;;;;;;;25.80;22.95;;;;;;;;;;4976621;28;20042;-69
2021/07/18 08:44:58;;;;;;;23.90;21.50;;;;;;;;;;4975436;28;20362;-71
2021/07/18 08:47:24;;;;;;;24.45;21.60;;;;;;;;;;4977082;28;20381;-73
2021/07/18 08:49:50;;;;;;;22.30;19.73;;;;;;;;;;4995427;28;20121;-73
2021/07/18 08:52:24;;;;;;;21.63;19.30;;;;;;;;;;4994631;28;20022;-72
2021/07/18 08:54:50;;;;;;;27.25;21.00;;;;;;;;;;4995418;28;20061;-76
2021/07/18 08:57:18;;;;;;;23.92;17.95;;;;;;;;;;4995829;28;20428;-72
2021/07/18 08:59:44;;;;;;;23.20;20.27;;;;;;;;;;4995924;28;20030;-76
2021/07/18 09:02:10;;;;;;;24.15;19.30;;;;;;;;;;4995795;28;20034;-73
2021/07/18 09:04:36;;;;;;;21.85;19.88;;;;;;;;;;4995156;28;20026;-71
2021/07/18 09:07:03;;;;;;;24.92;20.95;;;;;;;;;;4995241;28;20085;-72
2021/07/18 09:09:30;;;;;;;25.05;22.52;;;;;;;;;;4995879;28;20500;-74
2021/07/18 09:11:57;;;;;;;25.73;21.15;;;;;;;;;;4995286;28;20360;-72
2021/07/18 09:14:23;;;;;;;25.45;19.85;;;;;;;;;;4995893;28;20028;-74
2021/07/18 09:16:50;;;;;;;21.58;19.35;;;;;;;;;;4995618;28;20030;-72
2021/07/18 09:19:17;;;;;;;23.85;21.20;;;;;;;;;;4995467;28;20030;-70
2021/07/18 09:21:51;;;;;;;25.23;21.70;;;;;;;;;;4994288;28;20038;-71
2021/07/18 09:24:20;;;;;;;20.80;18.80;;;;;;;;;;4995839;28;20037;-71
2021/07/18 09:27:03;;;;;;;26.13;23.63;;;;;;;;;;4995467;28;20041;-70
2021/07/18 09:29:29;;;;;;;23.48;21.10;;;;;;;;;;4995241;28;20022;-71
2021/07/18 09:32:12;;;;;;;23.90;19.00;;;;;;;;;;4994258;28;20155;-69
2021/07/18 09:34:39;;;;;;;23.92;21.60;;;;;;;;;;4994887;28;20026;-72
2021/07/18 09:37:06;;;;;;;27.90;24.98;;;;;;;;;;4994992;28;20030;-71
2021/07/18 09:39:32;;;;;;;31.13;26.35;;;;;;;;;;4993805;28;20494;-71
2021/07/18 09:41:58;;;;;;;31.75;26.60;;;;;;;;;;4995868;28;20060;-70
2021/07/18 09:44:24;;;;;;;26.25;23.70;;;;;;;;;;4996397;28;20036;-73
2021/07/18 09:46:50;;;;;;;26.25;23.73;;;;;;;;;;4995888;28;20026;-72
2021/07/18 09:49:36;;;;;;;27.30;24.73;;;;;;;;;;4997081;28;20110;-71
2021/07/18 09:52:22;;;;;;;27.65;22.10;;;;;;;;;;4995800;28;20030;-72
2021/07/18 09:54:50;;;;;;;29.23;25.20;;;;;;;;;;4993194;28;20447;-72
2021/07/18 09:57:32;;;;;;;29.33;24.08;;;;;;;;;;4993996;28;20022;-72
2021/07/18 09:59:58;;;;;;;29.35;25.90;;;;;;;;;;4993883;28;20026;-72
2021/07/18 10:02:25;;;;;;;26.55;24.00;;;;;;;;;;4994675;28;20046;-72
2021/07/18 10:04:51;;;;;;;32.83;27.85;;;;;;;;;;4993837;28;20041;-72
2021/07/18 10:07:17;;;;;;;34.67;25.73;;;;;;;;;;4993890;28;20102;-71
2021/07/18 10:09:44;;;;;;;29.65;26.65;;;;;;;;;;4993345;28;20879;-72
2021/07/18 10:12:10;;;;;;;29.50;26.35;;;;;;;;;;4994702;28;20469;-73
2021/07/18 10:14:36;;;;;;;33.65;30.02;;;;;;;;;;4995176;28;20022;-71
2021/07/18 10:17:02;;;;;;;29.40;26.35;;;;;;;;;;4993552;28;20022;-71
2021/07/18 10:19:28;;;;;;;29.10;26.00;;;;;;;;;;4993602;28;20555;-71
2021/07/18 10:21:54;;;;;;;30.15;26.40;;;;;;;;;;4993372;28;20030;-71
2021/07/18 10:24:20;;;;;;;44.60;30.25;;;;;;;;;;4993833;28;20030;-71
2021/07/18 10:26:47;;;;;;;33.58;30.48;;;;;;;;;;4993407;28;20030;-72
2021/07/18 10:29:13;;;;;;;33.92;28.20;;;;;;;;;;4994323;28;20443;-70
2021/07/18 10:31:51;;;;;;;34.80;28.02;;;;;;;;;;4993920;28;20377;-71
2021/07/18 10:34:17;;;;;;;32.05;28.20;;;;;;;;;;4993916;28;20030;-71
2021/07/18 10:36:43;;;;;;;38.55;29.17;;;;;;;;;;4993342;28;20113;-71
2021/07/18 10:39:29;;;;;;;32.40;29.17;;;;;;;;;;4993592;28;20026;-71
2021/07/18 10:41:56;;;;;;;33.38;30.08;;;;;;;;;;4992559;28;20042;-71
2021/07/18 10:44:22;;;;;;;33.83;28.35;;;;;;;;;;4993643;28;20033;-71
2021/07/18 10:46:53;;;;;;;31.42;28.17;;;;;;;;;;4994027;28;20031;-72
2021/07/18 10:49:19;;;;;;;31.02;26.40;;;;;;;;;;4993974;28;20025;-72
2021/07/18 10:51:54;;;;;;;32.17;28.70;;;;;;;;;;4993495;28;20030;-73
2021/07/18 10:54:21;;;;;;;35.15;28.98;;;;;;;;;;4993709;28;20489;-71
2021/07/18 10:56:48;;;;;;;34.47;30.67;;;;;;;;;;4993728;28;20018;-71
2021/07/18 10:59:35;;;;;;;32.03;28.77;;;;;;;;;;4994187;28;20425;-71
2021/07/18 11:02:15;;;;;;;31.75;28.45;;;;;;;;;;4992633;28;20034;-71
2021/07/18 11:04:44;;;;;;;36.13;32.50;;;;;;;;;;4994097;28;20026;-71
2021/07/18 11:07:26;;;;;;;36.83;33.25;;;;;;;;;;4993340;28;20108;-71
2021/07/18 11:09:56;;;;;;;31.45;28.27;;;;;;;;;;4992680;28;20481;-71
2021/07/18 11:12:23;;;;;;;32.00;28.75;;;;;;;;;;4993462;28;20030;-71
2021/07/18 11:14:49;;;;;;;30.00;26.52;;;;;;;;;;4993406;28;20432;-71
2021/07/18 11:17:30;;;;;;;29.25;26.13;;;;;;;;;;4994080;28;20365;-71
2021/07/18 11:19:57;;;;;;;31.63;28.25;;;;;;;;;;4997411;28;20026;-71
2021/07/18 11:22:43;;;;;;;34.15;30.63;;;;;;;;;;4996613;28;20042;-70
2021/07/18 11:25:09;;;;;;;28.88;26.08;;;;;;;;;;4995422;28;20020;-71
2021/07/18 11:27:36;;;;;;;31.25;27.70;;;;;;;;;;4996561;28;20058;-71
2021/07/18 11:30:03;;;;;;;30.50;27.30;;;;;;;;;;4997126;28;20084;-71
2021/07/18 11:32:30;;;;;;;28.75;25.20;;;;;;;;;;4996696;28;20085;-70
2021/07/18 11:34:56;;;;;;;26.27;23.65;;;;;;;;;;4996369;28;20529;-70
2021/07/18 11:37:22;;;;;;;26.25;23.50;;;;;;;;;;4996855;28;20030;-70
2021/07/18 11:39:48;;;;;;;26.85;23.20;;;;;;;;;;4996695;28;20058;-69
2021/07/18 11:42:15;;;;;;;23.40;20.83;;;;;;;;;;4996084;28;20030;-72
2021/07/18 11:44:42;;;;;;;33.40;20.85;;;;;;;;;;4996709;28;20153;-71
2021/07/18 11:47:09;;;;;;;21.23;19.25;;;;;;;;;;4996581;28;20030;-69
2021/07/18 11:49:36;;;;;;;22.92;20.85;;;;;;;;;;4996501;28;20030;-71
2021/07/18 11:52:03;;;;;;;20.75;18.60;;;;;;;;;;4996246;28;20566;-70
2021/07/18 11:54:29;;;;;;;22.75;20.50;;;;;;;;;;4996607;28;20034;-73
2021/07/18 11:56:55;;;;;;;22.48;20.23;;;;;;;;;;4996728;28;20022;-72
2021/07/18 11:59:23;;;;;;;20.48;18.45;;;;;;;;;;4992542;28;20449;-73
2021/07/18 12:01:51;;;;;;;23.15;20.38;;;;;;;;;;4994151;28;20046;-71
2021/07/18 12:04:25;;;;;;;24.58;17.73;;;;;;;;;;4984327;28;20054;-72
2021/07/18 12:06:52;;;;;;;20.05;16.15;;;;;;;;;;4977202;28;20027;-72
2021/07/18 12:09:20;;;;;;;18.88;17.05;;;;;;;;;;4977683;28;20031;-70
2021/07/18 12:11:48;;;;;;;22.00;18.00;;;;;;;;;;4976725;28;20109;-72
2021/07/18 12:14:14;;;;;;;23.80;17.13;;;;;;;;;;4976147;28;20034;-71
2021/07/18 12:16:42;;;;;;;18.80;17.00;;;;;;;;;;4977480;28;20034;-71
2021/07/18 12:19:08;;;;;;;20.50;18.52;;;;;;;;;;4976865;28;20373;-71
2021/07/18 12:21:36;;;;;;;18.58;16.67;;;;;;;;;;4976837;28;20027;-72
2021/07/18 12:24:22;;;;;;;19.20;17.38;;;;;;;;;;4976439;28;20094;-72
2021/07/18 12:26:49;;;;;;;28.75;17.33;;;;;;;;;;5002854;28;20026;-73
2021/07/18 12:29:15;;;;;;;17.17;15.45;;;;;;;;;;4980982;28;20473;-73
2021/07/18 12:31:43;;;;;;;18.08;16.35;;;;;;;;;;4978437;28;20477;-72
2021/07/18 12:34:09;;;;;;;25.27;16.55;;;;;;;;;;4985537;28;20026;-73
2021/07/18 12:36:55;;;;;;;31.95;18.52;;;;;;;;;;4997560;28;20030;-72
2021/07/18 12:39:23;;;;;;;18.33;16.73;;;;;;;;;;4996009;28;20376;-72
2021/07/18 12:41:49;;;;;;;19.92;16.63;;;;;;;;;;4997137;28;20038;-73
2021/07/18 12:44:16;;;;;;;20.67;18.75;;;;;;;;;;4984032;28;20031;-73
2021/07/18 12:46:44;;;;;;;18.75;16.98;;;;;;;;;;4993533;28;20373;-72
2021/07/18 12:49:10;;;;;;;19.58;16.20;;;;;;;;;;4996429;28;20029;-71
2021/07/18 12:51:36;;;;;;;16.17;14.68;;;;;;;;;;4995749;28;20027;-76
2021/07/18 12:54:02;;;;;;;29.63;17.42;;;;;;;;;;4994398;28;20452;-74
2021/07/18 12:56:31;;;;;;;19.02;15.82;;;;;;;;;;4996304;28;20030;-72
2021/07/18 12:58:57;;;;;;;19.95;17.90;;;;;;;;;;4995737;28;20034;-74
2021/07/18 13:01:31;;;;;;;20.25;18.33;;;;;;;;;;4996059;28;20076;-73
2021/07/18 13:04:01;;;;;;;22.92;18.35;;;;;;;;;;4994500;28;20053;-73
2021/07/18 13:06:27;;;;;;;17.45;15.88;;;;;;;;;;4996393;28;20024;-75
2021/07/18 13:08:57;;;;;;;18.30;16.13;;;;;;;;;;4995745;28;20030;-72
2021/07/18 13:11:41;;;;;;;18.42;16.58;;;;;;;;;;4995157;28;20030;-72
2021/07/18 13:14:25;;;;;;;17.27;15.55;;;;;;;;;;4983967;28;20384;-77
2021/07/18 13:17:02;;;;;;;20.10;17.85;;;;;;;;;;4981699;28;20093;-74
2021/07/18 13:19:28;;;;;;;21.15;16.38;;;;;;;;;;4983584;28;20027;-74
2021/07/18 13:21:58;;;;;;;16.73;15.18;;;;;;;;;;4996157;28;20122;-74
2021/07/18 13:24:42;;;;;;;18.17;16.38;;;;;;;;;;4996271;28;20041;-72
2021/07/18 13:27:09;;;;;;;;;;;;;;;;;;4982919;28;20033;-72
2021/07/18 13:29:39;;;;;;;18.00;16.40;;;;;;;;;;4976573;28;19906;-72
2021/07/18 13:32:09;;;;;;;15.88;14.38;;;;;;;;;;4976013;28;20085;-72
2021/07/18 13:34:35;;;;;;;18.52;16.83;;;;;;;;;;4976371;28;20031;-73
2021/07/18 13:37:01;;;;;;;15.82;14.32;;;;;;;;;;4986028;28;20026;-72
2021/07/18 13:39:28;;;;;;;17.02;15.23;;;;;;;;;;4994799;28;20034;-72
2021/07/18 13:42:10;;;;;;;17.30;14.90;;;;;;;;;;4995429;28;20499;-74
2021/07/18 13:44:36;;;;;;;14.77;13.32;;;;;;;;;;4996397;28;20030;-75
2021/07/18 13:47:03;;;;;;;17.10;13.80;;;;;;;;;;4993378;28;20026;-73
2021/07/18 13:49:29;;;;;;;16.73;15.05;;;;;;;;;;4995073;28;20038;-76
2021/07/18 13:51:55;;;;;;;17.38;14.32;;;;;;;;;;4996524;28;20065;-74
2021/07/18 13:54:22;;;;;;;16.52;12.63;;;;;;;;;;4994819;28;20046;-76
2021/07/18 13:56:48;;;;;;;15.00;13.50;;;;;;;;;;4993008;28;20116;-73
2021/07/18 13:59:14;;;;;;;13.95;12.65;;;;;;;;;;4995782;28;20030;-73
2021/07/18 14:01:40;;;;;;;14.55;13.10;;;;;;;;;;4995707;28;20034;-74
2021/07/18 14:04:06;;;;;;;15.88;13.95;;;;;;;;;;4995214;28;20029;-75
2021/07/18 14:06:32;;;;;;;15.18;13.15;;;;;;;;;;4996049;28;20058;-74
2021/07/18 14:08:58;;;;;;;13.45;12.00;;;;;;;;;;4996893;28;20461;-75
2021/07/18 14:11:24;;;;;;;15.93;13.55;;;;;;;;;;4995646;28;20105;-74
2021/07/18 14:13:50;;;;;;;15.25;12.80;;;;;;;;;;4992407;28;20023;-74
2021/07/18 14:16:16;;;;;;;14.70;13.30;;;;;;;;;;4993530;28;20093;-74
2021/07/18 14:18:42;;;;;;;19.65;14.63;;;;;;;;;;4992840;28;20109;-76